sensor_id;sensor_type;location;lat;lon;timestamp;P1;durP1;ratioP1;P2;durP2;ratioP2
32613;SDS011;19031;51.400;6.770;2024-02-04T00:00:03;13.55;;;7.95;;
32613;SDS011;19031;51.400;6.770;2024-02-04T00:02:30;12.00;;;8.82;;
32613;SDS011;19031;51.400;6.770;2024-02-04T00:04:56;8.77;;;6.88;;
32613;SDS011;19031;51.400;6.770;2024-02-04T00:07:21;12.07;;;7.38;;
32613;SDS011;19031;51.400;6.770;2024-02-04T00:09:47;10.75;;;7.25;;
32613;SDS011;19031;51.400;6.770;2024-02-04T00:12:12;6.80;;;4.88;;
32613;SDS011;19031;51.400;6.770;2024-02-04T00:14:38;6.82;;;4.85;;
32613;SDS011;19031;51.400;6.770;2024-02-04T00:17:04;5.70;;;3.90;;
32613;SDS011;19031;51.400;6.770;2024-02-04T00:19:29;4.45;;;3.30;;
32613;SDS011;19031;51.400;6.770;2024-02-04T00:21:55;7.05;;;3.05;;
32613;SDS011;19031;51.400;6.770;2024-02-04T00:24:20;5.18;;;2.70;;
32613;SDS011;19031;51.400;6.770;2024-02-04T00:26:46;6.00;;;3.20;;
32613;SDS011;19031;51.400;6.770;2024-02-04T00:29:11;5.88;;;3.50;;
32613;SDS011;19031;51.400;6.770;2024-02-04T00:31:37;4.50;;;2.80;;
32613;SDS011;19031;51.400;6.770;2024-02-04T00:34:03;5.53;;;2.92;;
32613;SDS011;19031;51.400;6.770;2024-02-04T00:36:29;3.75;;;2.70;;
32613;SDS011;19031;51.400;6.770;2024-02-04T00:38:55;10.15;;;6.18;;
32613;SDS011;19031;51.400;6.770;2024-02-04T00:41:21;10.98;;;7.30;;
32613;SDS011;19031;51.400;6.770;2024-02-04T00:43:46;14.98;;;10.43;;
32613;SDS011;19031;51.400;6.770;2024-02-04T00:46:12;21.15;;;12.13;;
32613;SDS011;19031;51.400;6.770;2024-02-04T00:48:37;23.40;;;13.68;;
32613;SDS011;19031;51.400;6.770;2024-02-04T00:51:05;17.85;;;10.98;;
32613;SDS011;19031;51.400;6.770;2024-02-04T00:53:31;20.40;;;13.07;;
32613;SDS011;19031;51.400;6.770;2024-02-04T00:56:02;21.70;;;13.75;;
32613;SDS011;19031;51.400;6.770;2024-02-04T00:58:29;21.65;;;14.02;;
32613;SDS011;19031;51.400;6.770;2024-02-04T01:00:54;22.20;;;12.63;;
32613;SDS011;19031;51.400;6.770;2024-02-04T01:03:20;18.52;;;11.70;;
32613;SDS011;19031;51.400;6.770;2024-02-04T01:05:45;16.40;;;10.60;;
32613;SDS011;19031;51.400;6.770;2024-02-04T01:08:11;12.68;;;9.20;;
32613;SDS011;19031;51.400;6.770;2024-02-04T01:10:36;9.65;;;6.80;;
32613;SDS011;19031;51.400;6.770;2024-02-04T01:13:03;11.18;;;7.60;;
32613;SDS011;19031;51.400;6.770;2024-02-04T01:15:29;9.15;;;6.72;;
32613;SDS011;19031;51.400;6.770;2024-02-04T01:17:54;8.88;;;6.30;;
32613;SDS011;19031;51.400;6.770;2024-02-04T01:20:20;9.95;;;6.93;;
32613;SDS011;19031;51.400;6.770;2024-02-04T01:22:46;9.10;;;6.72;;
32613;SDS011;19031;51.400;6.770;2024-02-04T01:25:11;9.75;;;6.72;;
32613;SDS011;19031;51.400;6.770;2024-02-04T01:27:37;10.05;;;7.22;;
32613;SDS011;19031;51.400;6.770;2024-02-04T01:30:02;10.52;;;7.40;;
32613;SDS011;19031;51.400;6.770;2024-02-04T01:32:28;8.65;;;7.00;;
32613;SDS011;19031;51.400;6.770;2024-02-04T01:34:54;10.27;;;7.93;;
32613;SDS011;19031;51.400;6.770;2024-02-04T01:37:19;11.55;;;8.10;;
32613;SDS011;19031;51.400;6.770;2024-02-04T01:39:45;10.50;;;7.88;;
32613;SDS011;19031;51.400;6.770;2024-02-04T01:42:10;12.63;;;8.88;;
32613;SDS011;19031;51.400;6.770;2024-02-04T01:44:36;15.05;;;9.90;;
32613;SDS011;19031;51.400;6.770;2024-02-04T01:47:01;13.25;;;10.18;;
32613;SDS011;19031;51.400;6.770;2024-02-04T01:49:28;14.20;;;9.63;;
32613;SDS011;19031;51.400;6.770;2024-02-04T01:51:54;13.45;;;9.68;;
32613;SDS011;19031;51.400;6.770;2024-02-04T01:54:21;14.65;;;10.70;;
32613;SDS011;19031;51.400;6.770;2024-02-04T01:56:49;16.52;;;10.88;;
32613;SDS011;19031;51.400;6.770;2024-02-04T01:59:16;14.57;;;10.57;;
32613;SDS011;19031;51.400;6.770;2024-02-04T02:01:42;13.50;;;10.02;;
32613;SDS011;19031;51.400;6.770;2024-02-04T02:04:09;18.42;;;10.98;;
32613;SDS011;19031;51.400;6.770;2024-02-04T02:06:35;14.98;;;10.20;;
32613;SDS011;19031;51.400;6.770;2024-02-04T02:09:06;14.95;;;9.75;;
32613;SDS011;19031;51.400;6.770;2024-02-04T02:14:16;13.85;;;9.63;;
32613;SDS011;19031;51.400;6.770;2024-02-04T02:16:45;13.02;;;9.75;;
32613;SDS011;19031;51.400;6.770;2024-02-04T02:24:57;13.47;;;9.67;;
32613;SDS011;19031;51.400;6.770;2024-02-04T02:27:24;12.63;;;8.90;;
32613;SDS011;19031;51.400;6.770;2024-02-04T02:29:50;11.18;;;8.15;;
32613;SDS011;19031;51.400;6.770;2024-02-04T02:32:16;12.68;;;8.95;;
32613;SDS011;19031;51.400;6.770;2024-02-04T02:34:42;12.27;;;8.55;;
32613;SDS011;19031;51.400;6.770;2024-02-04T02:37:12;11.48;;;9.05;;
32613;SDS011;19031;51.400;6.770;2024-02-04T02:39:53;14.75;;;9.57;;
32613;SDS011;19031;51.400;6.770;2024-02-04T02:42:24;14.60;;;9.57;;
32613;SDS011;19031;51.400;6.770;2024-02-04T02:44:51;12.77;;;8.98;;
32613;SDS011;19031;51.400;6.770;2024-02-04T02:47:19;15.90;;;10.82;;
32613;SDS011;19031;51.400;6.770;2024-02-04T02:49:47;16.35;;;10.60;;
32613;SDS011;19031;51.400;6.770;2024-02-04T02:52:12;16.73;;;11.38;;
32613;SDS011;19031;51.400;6.770;2024-02-04T02:54:38;15.30;;;11.73;;
32613;SDS011;19031;51.400;6.770;2024-02-04T02:57:03;14.93;;;10.57;;
32613;SDS011;19031;51.400;6.770;2024-02-04T02:59:29;16.20;;;11.52;;
32613;SDS011;19031;51.400;6.770;2024-02-04T03:01:55;15.85;;;11.20;;
32613;SDS011;19031;51.400;6.770;2024-02-04T03:04:21;14.25;;;11.50;;
32613;SDS011;19031;51.400;6.770;2024-02-04T03:06:47;19.23;;;11.60;;
32613;SDS011;19031;51.400;6.770;2024-02-04T03:09:12;18.73;;;12.63;;
32613;SDS011;19031;51.400;6.770;2024-02-04T03:11:38;18.15;;;12.20;;
32613;SDS011;19031;51.400;6.770;2024-02-04T03:14:03;19.90;;;13.38;;
32613;SDS011;19031;51.400;6.770;2024-02-04T03:16:29;17.42;;;13.23;;
32613;SDS011;19031;51.400;6.770;2024-02-04T03:18:54;16.67;;;12.35;;
32613;SDS011;19031;51.400;6.770;2024-02-04T03:21:20;19.73;;;13.07;;
32613;SDS011;19031;51.400;6.770;2024-02-04T03:23:45;19.25;;;13.57;;
32613;SDS011;19031;51.400;6.770;2024-02-04T03:26:11;20.15;;;13.35;;
32613;SDS011;19031;51.400;6.770;2024-02-04T03:28:41;19.15;;;13.48;;
32613;SDS011;19031;51.400;6.770;2024-02-04T03:31:06;19.13;;;13.45;;
32613;SDS011;19031;51.400;6.770;2024-02-04T03:33:32;17.40;;;12.85;;
32613;SDS011;19031;51.400;6.770;2024-02-04T03:35:57;18.52;;;12.45;;
32613;SDS011;19031;51.400;6.770;2024-02-04T03:38:23;18.92;;;13.38;;
32613;SDS011;19031;51.400;6.770;2024-02-04T03:40:48;17.45;;;13.15;;
32613;SDS011;19031;51.400;6.770;2024-02-04T03:43:14;18.23;;;13.23;;
32613;SDS011;19031;51.400;6.770;2024-02-04T03:45:40;19.02;;;13.07;;
32613;SDS011;19031;51.400;6.770;2024-02-04T03:48:06;17.83;;;12.30;;
32613;SDS011;19031;51.400;6.770;2024-02-04T03:50:31;14.93;;;10.88;;
32613;SDS011;19031;51.400;6.770;2024-02-04T03:52:57;14.52;;;10.90;;
32613;SDS011;19031;51.400;6.770;2024-02-04T03:55:23;12.50;;;10.10;;
32613;SDS011;19031;51.400;6.770;2024-02-04T03:57:48;14.23;;;10.45;;
32613;SDS011;19031;51.400;6.770;2024-02-04T04:00:14;11.98;;;9.77;;
32613;SDS011;19031;51.400;6.770;2024-02-04T04:02:40;14.25;;;10.50;;
32613;SDS011;19031;51.400;6.770;2024-02-04T04:05:06;17.00;;;11.18;;
32613;SDS011;19031;51.400;6.770;2024-02-04T04:07:35;12.93;;;10.80;;
32613;SDS011;19031;51.400;6.770;2024-02-04T04:10:01;15.75;;;10.95;;
32613;SDS011;19031;51.400;6.770;2024-02-04T04:12:27;17.67;;;12.60;;
32613;SDS011;19031;51.400;6.770;2024-02-04T04:14:52;19.80;;;13.88;;
32613;SDS011;19031;51.400;6.770;2024-02-04T04:17:18;20.75;;;14.20;;
32613;SDS011;19031;51.400;6.770;2024-02-04T04:19:43;23.95;;;15.73;;
32613;SDS011;19031;51.400;6.770;2024-02-04T04:22:09;25.25;;;16.33;;
32613;SDS011;19031;51.400;6.770;2024-02-04T04:24:35;26.30;;;16.98;;
32613;SDS011;19031;51.400;6.770;2024-02-04T04:27:00;34.22;;;19.13;;
32613;SDS011;19031;51.400;6.770;2024-02-04T04:29:26;28.13;;;18.08;;
32613;SDS011;19031;51.400;6.770;2024-02-04T04:31:51;28.40;;;19.15;;
32613;SDS011;19031;51.400;6.770;2024-02-04T04:34:17;30.88;;;18.08;;
32613;SDS011;19031;51.400;6.770;2024-02-04T04:36:44;31.60;;;18.23;;
32613;SDS011;19031;51.400;6.770;2024-02-04T04:39:10;29.48;;;18.95;;
32613;SDS011;19031;51.400;6.770;2024-02-04T04:41:36;27.02;;;17.60;;
32613;SDS011;19031;51.400;6.770;2024-02-04T04:44:01;26.67;;;17.42;;
32613;SDS011;19031;51.400;6.770;2024-02-04T04:46:27;30.00;;;18.17;;
32613;SDS011;19031;51.400;6.770;2024-02-04T04:48:53;24.20;;;17.73;;
32613;SDS011;19031;51.400;6.770;2024-02-04T04:51:22;26.92;;;17.65;;
32613;SDS011;19031;51.400;6.770;2024-02-04T04:53:48;24.67;;;16.25;;
32613;SDS011;19031;51.400;6.770;2024-02-04T04:56:14;27.20;;;15.68;;
32613;SDS011;19031;51.400;6.770;2024-02-04T04:58:40;27.45;;;16.88;;
32613;SDS011;19031;51.400;6.770;2024-02-04T05:01:05;25.13;;;15.65;;
32613;SDS011;19031;51.400;6.770;2024-02-04T05:03:31;21.38;;;14.95;;
32613;SDS011;19031;51.400;6.770;2024-02-04T05:05:57;24.75;;;16.42;;
32613;SDS011;19031;51.400;6.770;2024-02-04T05:08:23;23.83;;;16.27;;
32613;SDS011;19031;51.400;6.770;2024-02-04T05:10:48;25.00;;;15.45;;
32613;SDS011;19031;51.400;6.770;2024-02-04T05:13:14;29.42;;;16.63;;
32613;SDS011;19031;51.400;6.770;2024-02-04T05:15:39;24.85;;;16.25;;
32613;SDS011;19031;51.400;6.770;2024-02-04T05:18:05;25.33;;;17.42;;
32613;SDS011;19031;51.400;6.770;2024-02-04T05:20:31;30.30;;;18.85;;
32613;SDS011;19031;51.400;6.770;2024-02-04T05:22:56;26.20;;;16.45;;
32613;SDS011;19031;51.400;6.770;2024-02-04T05:25:22;28.92;;;17.65;;
32613;SDS011;19031;51.400;6.770;2024-02-04T05:27:48;28.25;;;19.17;;
32613;SDS011;19031;51.400;6.770;2024-02-04T05:30:14;30.17;;;19.45;;
32613;SDS011;19031;51.400;6.770;2024-02-04T05:32:40;27.55;;;19.02;;
32613;SDS011;19031;51.400;6.770;2024-02-04T05:35:07;35.25;;;19.90;;
32613;SDS011;19031;51.400;6.770;2024-02-04T05:37:33;27.88;;;20.45;;
32613;SDS011;19031;51.400;6.770;2024-02-04T05:39:58;30.90;;;20.02;;
32613;SDS011;19031;51.400;6.770;2024-02-04T05:42:24;34.30;;;21.02;;
32613;SDS011;19031;51.400;6.770;2024-02-04T05:44:50;35.15;;;20.17;;
32613;SDS011;19031;51.400;6.770;2024-02-04T05:47:15;33.45;;;20.35;;
32613;SDS011;19031;51.400;6.770;2024-02-04T05:49:41;31.45;;;20.33;;
32613;SDS011;19031;51.400;6.770;2024-02-04T05:52:06;31.20;;;20.48;;
32613;SDS011;19031;51.400;6.770;2024-02-04T05:54:32;33.08;;;20.95;;
32613;SDS011;19031;51.400;6.770;2024-02-04T05:57:02;33.70;;;20.90;;
32613;SDS011;19031;51.400;6.770;2024-02-04T05:59:28;36.47;;;21.25;;
32613;SDS011;19031;51.400;6.770;2024-02-04T06:01:54;37.88;;;20.85;;
32613;SDS011;19031;51.400;6.770;2024-02-04T06:04:19;34.47;;;22.25;;
32613;SDS011;19031;51.400;6.770;2024-02-04T06:06:45;36.80;;;22.80;;
32613;SDS011;19031;51.400;6.770;2024-02-04T06:09:11;45.88;;;24.83;;
32613;SDS011;19031;51.400;6.770;2024-02-04T06:11:37;36.92;;;22.13;;
32613;SDS011;19031;51.400;6.770;2024-02-04T06:14:02;37.83;;;22.17;;
32613;SDS011;19031;51.400;6.770;2024-02-04T06:16:28;41.33;;;24.50;;
32613;SDS011;19031;51.400;6.770;2024-02-04T06:18:53;34.33;;;22.73;;
32613;SDS011;19031;51.400;6.770;2024-02-04T06:21:22;34.75;;;22.40;;
32613;SDS011;19031;51.400;6.770;2024-02-04T06:23:49;38.38;;;22.95;;
32613;SDS011;19031;51.400;6.770;2024-02-04T06:26:15;33.88;;;22.70;;
32613;SDS011;19031;51.400;6.770;2024-02-04T06:28:40;35.47;;;22.13;;
32613;SDS011;19031;51.400;6.770;2024-02-04T06:31:08;33.00;;;21.63;;
32613;SDS011;19031;51.400;6.770;2024-02-04T06:33:34;34.75;;;20.58;;
32613;SDS011;19031;51.400;6.770;2024-02-04T06:36:00;41.70;;;22.20;;
32613;SDS011;19031;51.400;6.770;2024-02-04T06:38:25;37.50;;;23.13;;
32613;SDS011;19031;51.400;6.770;2024-02-04T06:40:51;38.33;;;22.10;;
32613;SDS011;19031;51.400;6.770;2024-02-04T06:43:18;37.70;;;21.17;;
32613;SDS011;19031;51.400;6.770;2024-02-04T06:45:43;37.72;;;20.98;;
32613;SDS011;19031;51.400;6.770;2024-02-04T06:48:09;33.63;;;20.83;;
32613;SDS011;19031;51.400;6.770;2024-02-04T06:50:35;38.85;;;22.85;;
32613;SDS011;19031;51.400;6.770;2024-02-04T06:53:02;39.28;;;21.77;;
32613;SDS011;19031;51.400;6.770;2024-02-04T06:55:27;41.03;;;20.67;;
32613;SDS011;19031;51.400;6.770;2024-02-04T06:57:53;32.47;;;18.88;;
32613;SDS011;19031;51.400;6.770;2024-02-04T07:00:19;35.25;;;18.98;;
32613;SDS011;19031;51.400;6.770;2024-02-04T07:02:46;29.88;;;17.23;;
32613;SDS011;19031;51.400;6.770;2024-02-04T07:05:12;28.98;;;17.10;;
32613;SDS011;19031;51.400;6.770;2024-02-04T07:07:37;32.63;;;18.20;;
32613;SDS011;19031;51.400;6.770;2024-02-04T07:10:03;29.75;;;18.15;;
32613;SDS011;19031;51.400;6.770;2024-02-04T07:12:29;30.40;;;16.58;;
32613;SDS011;19031;51.400;6.770;2024-02-04T07:14:54;31.65;;;16.45;;
32613;SDS011;19031;51.400;6.770;2024-02-04T07:17:20;32.75;;;18.08;;
32613;SDS011;19031;51.400;6.770;2024-02-04T07:19:46;28.92;;;16.67;;
32613;SDS011;19031;51.400;6.770;2024-02-04T07:22:11;32.00;;;17.23;;
32613;SDS011;19031;51.400;6.770;2024-02-04T07:24:37;30.98;;;18.65;;
32613;SDS011;19031;51.400;6.770;2024-02-04T07:27:02;30.90;;;18.42;;
32613;SDS011;19031;51.400;6.770;2024-02-04T07:29:28;34.33;;;17.63;;
32613;SDS011;19031;51.400;6.770;2024-02-04T07:31:54;33.22;;;17.73;;
32613;SDS011;19031;51.400;6.770;2024-02-04T07:34:20;32.40;;;18.33;;
32613;SDS011;19031;51.400;6.770;2024-02-04T07:36:45;29.45;;;18.25;;
32613;SDS011;19031;51.400;6.770;2024-02-04T07:39:11;26.40;;;15.98;;
32613;SDS011;19031;51.400;6.770;2024-02-04T07:41:36;30.77;;;17.20;;
32613;SDS011;19031;51.400;6.770;2024-02-04T07:44:02;25.65;;;15.07;;
32613;SDS011;19031;51.400;6.770;2024-02-04T07:46:28;27.60;;;15.95;;
32613;SDS011;19031;51.400;6.770;2024-02-04T07:48:54;24.00;;;14.82;;
32613;SDS011;19031;51.400;6.770;2024-02-04T07:51:19;28.88;;;14.43;;
32613;SDS011;19031;51.400;6.770;2024-02-04T07:53:45;29.13;;;16.27;;
32613;SDS011;19031;51.400;6.770;2024-02-04T07:56:10;28.50;;;15.55;;
32613;SDS011;19031;51.400;6.770;2024-02-04T07:58:36;30.17;;;16.15;;
32613;SDS011;19031;51.400;6.770;2024-02-04T08:01:02;25.92;;;16.17;;
32613;SDS011;19031;51.400;6.770;2024-02-04T08:03:28;23.48;;;13.80;;
32613;SDS011;19031;51.400;6.770;2024-02-04T08:05:53;24.10;;;14.10;;
32613;SDS011;19031;51.400;6.770;2024-02-04T08:08:19;20.83;;;12.10;;
32613;SDS011;19031;51.400;6.770;2024-02-04T08:10:44;19.63;;;12.73;;
32613;SDS011;19031;51.400;6.770;2024-02-04T08:13:10;22.42;;;12.93;;
32613;SDS011;19031;51.400;6.770;2024-02-04T08:15:36;17.75;;;12.52;;
32613;SDS011;19031;51.400;6.770;2024-02-04T08:18:01;16.85;;;11.73;;
32613;SDS011;19031;51.400;6.770;2024-02-04T08:20:27;20.15;;;11.45;;
32613;SDS011;19031;51.400;6.770;2024-02-04T08:22:53;20.45;;;12.45;;
32613;SDS011;19031;51.400;6.770;2024-02-04T08:25:19;22.00;;;13.52;;
32613;SDS011;19031;51.400;6.770;2024-02-04T08:27:45;21.98;;;13.23;;
32613;SDS011;19031;51.400;6.770;2024-02-04T08:30:11;19.02;;;13.02;;
32613;SDS011;19031;51.400;6.770;2024-02-04T08:32:38;22.42;;;14.27;;
32613;SDS011;19031;51.400;6.770;2024-02-04T08:35:04;22.00;;;14.18;;
32613;SDS011;19031;51.400;6.770;2024-02-04T08:37:31;22.42;;;13.45;;
32613;SDS011;19031;51.400;6.770;2024-02-04T08:39:57;25.67;;;15.02;;
32613;SDS011;19031;51.400;6.770;2024-02-04T08:42:22;21.83;;;14.77;;
32613;SDS011;19031;51.400;6.770;2024-02-04T08:44:48;27.58;;;15.38;;
32613;SDS011;19031;51.400;6.770;2024-02-04T08:47:14;22.52;;;14.27;;
32613;SDS011;19031;51.400;6.770;2024-02-04T08:49:41;23.95;;;15.20;;
32613;SDS011;19031;51.400;6.770;2024-02-04T08:52:07;23.23;;;13.13;;
32613;SDS011;19031;51.400;6.770;2024-02-04T08:54:33;18.15;;;12.57;;
32613;SDS011;19031;51.400;6.770;2024-02-04T08:56:58;24.70;;;14.27;;
32613;SDS011;19031;51.400;6.770;2024-02-04T08:59:24;24.38;;;14.27;;
32613;SDS011;19031;51.400;6.770;2024-02-04T09:01:50;25.80;;;13.05;;
32613;SDS011;19031;51.400;6.770;2024-02-04T09:04:15;19.60;;;13.43;;
32613;SDS011;19031;51.400;6.770;2024-02-04T09:06:41;22.58;;;13.65;;
32613;SDS011;19031;51.400;6.770;2024-02-04T09:09:06;20.90;;;13.75;;
32613;SDS011;19031;51.400;6.770;2024-02-04T09:11:34;22.92;;;14.07;;
32613;SDS011;19031;51.400;6.770;2024-02-04T09:13:59;21.13;;;12.18;;
32613;SDS011;19031;51.400;6.770;2024-02-04T09:16:25;17.52;;;12.27;;
32613;SDS011;19031;51.400;6.770;2024-02-04T09:18:50;20.60;;;12.25;;
32613;SDS011;19031;51.400;6.770;2024-02-04T09:21:16;18.38;;;12.43;;
32613;SDS011;19031;51.400;6.770;2024-02-04T09:23:42;15.18;;;11.80;;
32613;SDS011;19031;51.400;6.770;2024-02-04T09:26:07;18.60;;;11.27;;
32613;SDS011;19031;51.400;6.770;2024-02-04T09:28:33;20.95;;;11.98;;
32613;SDS011;19031;51.400;6.770;2024-02-04T09:30:58;18.23;;;11.85;;
32613;SDS011;19031;51.400;6.770;2024-02-04T09:33:24;18.00;;;11.00;;
32613;SDS011;19031;51.400;6.770;2024-02-04T09:35:50;20.02;;;10.25;;
32613;SDS011;19031;51.400;6.770;2024-02-04T09:38:15;14.93;;;10.07;;
32613;SDS011;19031;51.400;6.770;2024-02-04T09:40:41;19.30;;;10.68;;
32613;SDS011;19031;51.400;6.770;2024-02-04T09:43:07;19.20;;;10.85;;
32613;SDS011;19031;51.400;6.770;2024-02-04T09:45:34;15.25;;;9.25;;
32613;SDS011;19031;51.400;6.770;2024-02-04T09:48:00;15.45;;;10.18;;
32613;SDS011;19031;51.400;6.770;2024-02-04T09:50:27;14.27;;;9.77;;
32613;SDS011;19031;51.400;6.770;2024-02-04T09:52:54;14.55;;;9.25;;
32613;SDS011;19031;51.400;6.770;2024-02-04T09:55:26;13.73;;;9.38;;
32613;SDS011;19031;51.400;6.770;2024-02-04T09:57:53;17.75;;;9.23;;
32613;SDS011;19031;51.400;6.770;2024-02-04T10:00:19;15.35;;;8.93;;
32613;SDS011;19031;51.400;6.770;2024-02-04T10:02:47;14.02;;;9.05;;
32613;SDS011;19031;51.400;6.770;2024-02-04T10:05:13;12.60;;;8.95;;
32613;SDS011;19031;51.400;6.770;2024-02-04T10:07:40;13.20;;;8.60;;
32613;SDS011;19031;51.400;6.770;2024-02-04T10:10:06;13.55;;;9.48;;
32613;SDS011;19031;51.400;6.770;2024-02-04T10:12:32;12.27;;;8.68;;
32613;SDS011;19031;51.400;6.770;2024-02-04T10:15:01;14.93;;;8.80;;
32613;SDS011;19031;51.400;6.770;2024-02-04T10:17:29;14.63;;;9.93;;
32613;SDS011;19031;51.400;6.770;2024-02-04T10:19:56;15.13;;;9.48;;
32613;SDS011;19031;51.400;6.770;2024-02-04T10:22:22;15.45;;;9.63;;
32613;SDS011;19031;51.400;6.770;2024-02-04T10:24:48;15.95;;;9.25;;
32613;SDS011;19031;51.400;6.770;2024-02-04T10:27:14;12.00;;;8.13;;
32613;SDS011;19031;51.400;6.770;2024-02-04T10:29:40;12.50;;;8.75;;
32613;SDS011;19031;51.400;6.770;2024-02-04T10:32:06;12.75;;;8.25;;
32613;SDS011;19031;51.400;6.770;2024-02-04T10:34:36;13.43;;;8.07;;
32613;SDS011;19031;51.400;6.770;2024-02-04T10:37:02;12.88;;;8.48;;
32613;SDS011;19031;51.400;6.770;2024-02-04T10:39:28;14.02;;;7.75;;
32613;SDS011;19031;51.400;6.770;2024-02-04T10:41:53;13.35;;;8.07;;
32613;SDS011;19031;51.400;6.770;2024-02-04T10:44:24;15.98;;;7.78;;
32613;SDS011;19031;51.400;6.770;2024-02-04T10:46:52;11.70;;;7.30;;
32613;SDS011;19031;51.400;6.770;2024-02-04T10:49:19;9.70;;;7.15;;
32613;SDS011;19031;51.400;6.770;2024-02-04T10:51:45;9.90;;;6.18;;
32613;SDS011;19031;51.400;6.770;2024-02-04T10:54:13;8.18;;;5.80;;
32613;SDS011;19031;51.400;6.770;2024-02-04T10:56:46;7.82;;;5.10;;
32613;SDS011;19031;51.400;6.770;2024-02-04T10:59:20;6.93;;;4.10;;
32613;SDS011;19031;51.400;6.770;2024-02-04T11:01:47;6.57;;;4.63;;
32613;SDS011;19031;51.400;6.770;2024-02-04T11:04:16;6.38;;;4.43;;
32613;SDS011;19031;51.400;6.770;2024-02-04T11:06:43;8.75;;;5.28;;
32613;SDS011;19031;51.400;6.770;2024-02-04T11:09:09;7.95;;;4.60;;
32613;SDS011;19031;51.400;6.770;2024-02-04T11:11:37;11.68;;;6.03;;
32613;SDS011;19031;51.400;6.770;2024-02-04T11:14:05;7.80;;;5.97;;
32613;SDS011;19031;51.400;6.770;2024-02-04T11:27:05;10.90;;;7.00;;
32613;SDS011;19031;51.400;6.770;2024-02-04T11:29:31;8.27;;;7.00;;
32613;SDS011;19031;51.400;6.770;2024-02-04T11:31:57;12.60;;;7.22;;
32613;SDS011;19031;51.400;6.770;2024-02-04T11:34:23;11.05;;;7.50;;
32613;SDS011;19031;51.400;6.770;2024-02-04T11:36:49;11.73;;;7.43;;
32613;SDS011;19031;51.400;6.770;2024-02-04T11:39:17;10.55;;;6.97;;
32613;SDS011;19031;51.400;6.770;2024-02-04T11:41:47;12.20;;;7.95;;
32613;SDS011;19031;51.400;6.770;2024-02-04T11:44:20;13.00;;;7.68;;
32613;SDS011;19031;51.400;6.770;2024-02-04T11:46:47;11.93;;;7.83;;
32613;SDS011;19031;51.400;6.770;2024-02-04T11:49:16;12.82;;;8.23;;
32613;SDS011;19031;51.400;6.770;2024-02-04T11:51:46;13.30;;;8.73;;
32613;SDS011;19031;51.400;6.770;2024-02-04T11:54:15;13.05;;;8.20;;
32613;SDS011;19031;51.400;6.770;2024-02-04T11:56:42;11.55;;;7.63;;
32613;SDS011;19031;51.400;6.770;2024-02-04T11:59:08;14.55;;;7.95;;
32613;SDS011;19031;51.400;6.770;2024-02-04T12:01:34;11.90;;;8.40;;
32613;SDS011;19031;51.400;6.770;2024-02-04T12:04:15;15.43;;;8.02;;
32613;SDS011;19031;51.400;6.770;2024-02-04T12:06:41;10.55;;;7.30;;
32613;SDS011;19031;51.400;6.770;2024-02-04T12:09:08;17.48;;;8.00;;
32613;SDS011;19031;51.400;6.770;2024-02-04T12:11:35;14.75;;;7.82;;
32613;SDS011;19031;51.400;6.770;2024-02-04T12:14:01;15.07;;;8.25;;
32613;SDS011;19031;51.400;6.770;2024-02-04T12:16:28;13.73;;;7.35;;
32613;SDS011;19031;51.400;6.770;2024-02-04T12:18:53;14.00;;;8.90;;
32613;SDS011;19031;51.400;6.770;2024-02-04T12:21:19;13.93;;;7.88;;
32613;SDS011;19031;51.400;6.770;2024-02-04T12:23:46;12.57;;;8.73;;
32613;SDS011;19031;51.400;6.770;2024-02-04T12:26:12;11.30;;;7.43;;
32613;SDS011;19031;51.400;6.770;2024-02-04T12:28:39;11.98;;;7.57;;
32613;SDS011;19031;51.400;6.770;2024-02-04T12:31:04;11.73;;;7.88;;
32613;SDS011;19031;51.400;6.770;2024-02-04T12:33:30;17.35;;;8.27;;
32613;SDS011;19031;51.400;6.770;2024-02-04T12:35:56;12.65;;;7.47;;
32613;SDS011;19031;51.400;6.770;2024-02-04T12:38:24;9.00;;;6.03;;
32613;SDS011;19031;51.400;6.770;2024-02-04T12:40:49;12.10;;;6.70;;
32613;SDS011;19031;51.400;6.770;2024-02-04T12:43:15;10.05;;;6.35;;
32613;SDS011;19031;51.400;6.770;2024-02-04T12:45:41;8.18;;;6.45;;
32613;SDS011;19031;51.400;6.770;2024-02-04T12:48:07;12.60;;;7.13;;
32613;SDS011;19031;51.400;6.770;2024-02-04T12:50:36;11.35;;;6.70;;
32613;SDS011;19031;51.400;6.770;2024-02-04T12:55:37;11.68;;;6.22;;
32613;SDS011;19031;51.400;6.770;2024-02-04T13:00:46;10.63;;;5.85;;
32613;SDS011;19031;51.400;6.770;2024-02-04T13:03:15;8.32;;;5.10;;
32613;SDS011;19031;51.400;6.770;2024-02-04T13:05:41;11.15;;;6.57;;
32613;SDS011;19031;51.400;6.770;2024-02-04T13:08:06;7.72;;;6.05;;
32613;SDS011;19031;51.400;6.770;2024-02-04T13:10:33;7.90;;;6.15;;
32613;SDS011;19031;51.400;6.770;2024-02-04T13:13:00;10.80;;;6.15;;
32613;SDS011;19031;51.400;6.770;2024-02-04T13:15:27;9.00;;;6.30;;
32613;SDS011;19031;51.400;6.770;2024-02-04T13:17:54;8.75;;;6.60;;
32613;SDS011;19031;51.400;6.770;2024-02-04T13:20:20;10.25;;;7.00;;
32613;SDS011;19031;51.400;6.770;2024-02-04T13:22:46;9.93;;;6.72;;
32613;SDS011;19031;51.400;6.770;2024-02-04T13:25:12;10.82;;;6.75;;
32613;SDS011;19031;51.400;6.770;2024-02-04T13:27:37;12.48;;;7.20;;
32613;SDS011;19031;51.400;6.770;2024-02-04T13:30:03;11.25;;;6.82;;
32613;SDS011;19031;51.400;6.770;2024-02-04T13:32:31;8.70;;;6.43;;
32613;SDS011;19031;51.400;6.770;2024-02-04T13:34:56;9.10;;;6.25;;
32613;SDS011;19031;51.400;6.770;2024-02-04T13:37:22;9.63;;;7.60;;
32613;SDS011;19031;51.400;6.770;2024-02-04T13:39:48;11.95;;;7.57;;
32613;SDS011;19031;51.400;6.770;2024-02-04T13:42:13;15.07;;;7.47;;
32613;SDS011;19031;51.400;6.770;2024-02-04T13:44:39;10.70;;;7.28;;
32613;SDS011;19031;51.400;6.770;2024-02-04T13:47:05;11.20;;;6.85;;
32613;SDS011;19031;51.400;6.770;2024-02-04T13:49:30;10.30;;;7.57;;
32613;SDS011;19031;51.400;6.770;2024-02-04T13:51:56;14.20;;;7.38;;
32613;SDS011;19031;51.400;6.770;2024-02-04T13:54:21;11.13;;;8.38;;
32613;SDS011;19031;51.400;6.770;2024-02-04T13:56:47;11.93;;;8.50;;
32613;SDS011;19031;51.400;6.770;2024-02-04T13:59:13;13.10;;;7.63;;
32613;SDS011;19031;51.400;6.770;2024-02-04T14:01:38;12.07;;;7.30;;
32613;SDS011;19031;51.400;6.770;2024-02-04T14:04:04;10.45;;;8.40;;
32613;SDS011;19031;51.400;6.770;2024-02-04T14:06:29;13.93;;;9.10;;
32613;SDS011;19031;51.400;6.770;2024-02-04T14:08:55;12.70;;;8.35;;
32613;SDS011;19031;51.400;6.770;2024-02-04T14:11:20;12.98;;;9.82;;
32613;SDS011;19031;51.400;6.770;2024-02-04T14:13:46;13.65;;;8.73;;
32613;SDS011;19031;51.400;6.770;2024-02-04T14:16:12;14.88;;;9.88;;
32613;SDS011;19031;51.400;6.770;2024-02-04T14:18:38;11.82;;;9.23;;
32613;SDS011;19031;51.400;6.770;2024-02-04T14:21:05;11.25;;;8.40;;
32613;SDS011;19031;51.400;6.770;2024-02-04T14:23:32;13.85;;;9.40;;
32613;SDS011;19031;51.400;6.770;2024-02-04T14:25:57;12.88;;;8.48;;
32613;SDS011;19031;51.400;6.770;2024-02-04T14:28:23;10.82;;;7.97;;
32613;SDS011;19031;51.400;6.770;2024-02-04T14:30:48;12.23;;;8.70;;
32613;SDS011;19031;51.400;6.770;2024-02-04T14:33:14;12.75;;;9.18;;
32613;SDS011;19031;51.400;6.770;2024-02-04T14:35:39;11.77;;;7.90;;
32613;SDS011;19031;51.400;6.770;2024-02-04T14:38:05;11.82;;;7.65;;
32613;SDS011;19031;51.400;6.770;2024-02-04T14:40:32;11.88;;;7.32;;
32613;SDS011;19031;51.400;6.770;2024-02-04T14:43:00;14.07;;;7.55;;
32613;SDS011;19031;51.400;6.770;2024-02-04T14:45:27;11.25;;;7.20;;